sensor_id;sensor_type;location;lat;lon;timestamp;pressure;altitude;pressure_sealevel;temperature;humidity
69184;BME280;56291;53.960;27.550;2022-08-03T02:01:26;99286.13;;;12.58;54.21
69184;BME280;56291;53.960;27.550;2022-08-03T02:03:54;99281.59;;;12.50;53.92
69184;BME280;56291;53.960;27.550;2022-08-03T02:06:23;99286.19;;;12.48;54.34
69184;BME280;56291;53.960;27.550;2022-08-03T02:08:51;99295.09;;;12.47;54.05
69184;BME280;56291;53.960;27.550;2022-08-03T02:11:19;99297.03;;;12.45;54.43
69184;BME280;56291;53.960;27.550;2022-08-03T02:13:46;99296.81;;;12.39;54.50
69184;BME280;56291;53.960;27.550;2022-08-03T02:16:18;99287.88;;;12.40;54.85
69184;BME280;56291;53.960;27.550;2022-08-03T02:18:45;99292.34;;;12.39;54.80
69184;BME280;56291;53.960;27.550;2022-08-03T02:21:13;99283.63;;;12.39;54.79
69184;BME280;56291;53.960;27.550;2022-08-03T02:23:40;99281.41;;;12.34;54.39
69184;BME280;56291;53.960;27.550;2022-08-03T02:26:13;99277.94;;;12.33;54.47
69184;BME280;56291;53.960;27.550;2022-08-03T02:28:44;99285.31;;;12.30;54.41
69184;BME280;56291;53.960;27.550;2022-08-03T02:31:13;99281.31;;;12.26;54.91
69184;BME280;56291;53.960;27.550;2022-08-03T02:33:56;99289.38;;;12.24;54.51
69184;BME280;56291;53.960;27.550;2022-08-03T02:36:30;99290.50;;;12.22;54.95
69184;BME280;56291;53.960;27.550;2022-08-03T02:38:59;99292.56;;;12.28;54.62
69184;BME280;56291;53.960;27.550;2022-08-03T02:41:53;99292.31;;;12.21;54.93
69184;BME280;56291;53.960;27.550;2022-08-03T02:44:29;99285.22;;;12.22;54.36
69184;BME280;56291;53.960;27.550;2022-08-03T02:47:08;99283.06;;;12.07;55.54
69184;BME280;56291;53.960;27.550;2022-08-03T02:49:37;99285.41;;;12.10;54.70
69184;BME280;56291;53.960;27.550;2022-08-03T02:52:04;99292.66;;;12.08;55.17
69184;BME280;56291;53.960;27.550;2022-08-03T02:54:35;99285.56;;;12.09;55.66
69184;BME280;56291;53.960;27.550;2022-08-03T02:57:05;99284.19;;;12.05;55.87
69184;BME280;56291;53.960;27.550;2022-08-03T02:59:33;99298.75;;;12.09;55.28
69184;BME280;56291;53.960;27.550;2022-08-03T03:02:00;99296.72;;;12.03;56.36
69184;BME280;56291;53.960;27.550;2022-08-03T03:07:52;99295.59;;;12.05;54.92
69184;BME280;56291;53.960;27.550;2022-08-03T03:10:22;99299.19;;;12.04;55.00
69184;BME280;56291;53.960;27.550;2022-08-03T03:12:59;99297.81;;;12.00;55.85
69184;BME280;56291;53.960;27.550;2022-08-03T03:15:27;99298.53;;;12.02;55.08
69184;BME280;56291;53.960;27.550;2022-08-03T03:17:56;99305.28;;;12.05;54.96
69184;BME280;56291;53.960;27.550;2022-08-03T03:20:25;99304.72;;;12.11;54.64
69184;BME280;56291;53.960;27.550;2022-08-03T03:22:52;99305.59;;;12.02;56.25
69184;BME280;56291;53.960;27.550;2022-08-03T03:25:20;99316.28;;;12.00;55.52
69184;BME280;56291;53.960;27.550;2022-08-03T03:27:47;99310.84;;;12.02;55.58
69184;BME280;56291;53.960;27.550;2022-08-03T03:33:38;99315.31;;;12.01;55.73
69184;BME280;56291;53.960;27.550;2022-08-03T03:36:05;99316.84;;;12.04;56.17
69184;BME280;56291;53.960;27.550;2022-08-03T03:39:08;99314.19;;;12.04;58.02
69184;BME280;56291;53.960;27.550;2022-08-03T03:41:36;99320.69;;;12.09;55.72
69184;BME280;56291;53.960;27.550;2022-08-03T03:44:03;99317.06;;;12.10;56.88
69184;BME280;56291;53.960;27.550;2022-08-03T03:46:29;99327.34;;;12.13;55.46
69184;BME280;56291;53.960;27.550;2022-08-03T03:49:06;99323.19;;;12.11;56.12
69184;BME280;56291;53.960;27.550;2022-08-03T03:51:33;99318.28;;;12.16;55.30
69184;BME280;56291;53.960;27.550;2022-08-03T03:54:01;99315.78;;;12.14;56.47
69184;BME280;56291;53.960;27.550;2022-08-03T03:56:28;99311.22;;;12.16;55.84
69184;BME280;56291;53.960;27.550;2022-08-03T03:59:04;99307.31;;;12.21;54.73
69184;BME280;56291;53.960;27.550;2022-08-03T04:01:30;99311.88;;;12.19;56.02
69184;BME280;56291;53.960;27.550;2022-08-03T04:03:57;99318.84;;;12.20;56.72
69184;BME280;56291;53.960;27.550;2022-08-03T04:06:43;99315.59;;;12.26;56.02
69184;BME280;56291;53.960;27.550;2022-08-03T04:09:46;99323.66;;;12.24;55.70
69184;BME280;56291;53.960;27.550;2022-08-03T04:12:32;99318.13;;;12.27;55.16
69184;BME280;56291;53.960;27.550;2022-08-03T04:15:00;99323.91;;;12.31;56.24
69184;BME280;56291;53.960;27.550;2022-08-03T04:17:30;99335.28;;;12.31;54.99
69184;BME280;56291;53.960;27.550;2022-08-03T04:19:58;99326.25;;;12.34;55.81
69184;BME280;56291;53.960;27.550;2022-08-03T04:22:28;99314.06;;;12.33;57.77
69184;BME280;56291;53.960;27.550;2022-08-03T04:25:08;99326.66;;;12.39;55.97
69184;BME280;56291;53.960;27.550;2022-08-03T04:27:40;99333.28;;;12.43;58.35
69184;BME280;56291;53.960;27.550;2022-08-03T04:30:08;99326.75;;;12.47;55.73
69184;BME280;56291;53.960;27.550;2022-08-03T04:32:36;99327.13;;;12.53;57.90
69184;BME280;56291;53.960;27.550;2022-08-03T04:35:04;99328.94;;;12.52;57.04
69184;BME280;56291;53.960;27.550;2022-08-03T04:37:45;99328.63;;;12.55;56.22
69184;BME280;56291;53.960;27.550;2022-08-03T04:40:24;99330.28;;;12.56;56.53
69184;BME280;56291;53.960;27.550;2022-08-03T04:42:55;99331.66;;;12.60;55.96
69184;BME280;56291;53.960;27.550;2022-08-03T04:45:24;99334.38;;;12.68;58.77
69184;BME280;56291;53.960;27.550;2022-08-03T04:47:59;99331.00;;;12.76;56.99
69184;BME280;56291;53.960;27.550;2022-08-03T04:50:26;99332.66;;;12.77;57.03
69184;BME280;56291;53.960;27.550;2022-08-03T04:53:06;99336.13;;;12.78;56.63
69184;BME280;56291;53.960;27.550;2022-08-03T04:55:35;99340.00;;;12.83;57.21
69184;BME280;56291;53.960;27.550;2022-08-03T05:01:54;99346.41;;;12.99;59.00
69184;BME280;56291;53.960;27.550;2022-08-03T05:04:20;99343.81;;;13.07;59.32
69184;BME280;56291;53.960;27.550;2022-08-03T05:10:29;99346.53;;;13.15;57.22
69184;BME280;56291;53.960;27.550;2022-08-03T05:12:55;99346.78;;;13.22;58.62
69184;BME280;56291;53.960;27.550;2022-08-03T05:15:24;99348.94;;;13.27;58.10
69184;BME280;56291;53.960;27.550;2022-08-03T05:17:54;99345.72;;;13.33;57.65
69184;BME280;56291;53.960;27.550;2022-08-03T05:21:00;99352.88;;;13.41;57.91
69184;BME280;56291;53.960;27.550;2022-08-03T05:23:39;99349.66;;;13.47;57.31
69184;BME280;56291;53.960;27.550;2022-08-03T05:26:07;99353.50;;;13.52;57.20
69184;BME280;56291;53.960;27.550;2022-08-03T05:28:44;99353.50;;;13.52;57.63
69184;BME280;56291;53.960;27.550;2022-08-03T05:31:18;99358.16;;;13.59;57.41
69184;BME280;56291;53.960;27.550;2022-08-03T05:33:49;99354.22;;;13.63;58.05
69184;BME280;56291;53.960;27.550;2022-08-03T05:36:19;99350.81;;;13.70;59.48
69184;BME280;56291;53.960;27.550;2022-08-03T05:38:56;99349.38;;;13.76;58.75
69184;BME280;56291;53.960;27.550;2022-08-03T05:41:38;99346.06;;;13.82;57.62
69184;BME280;56291;53.960;27.550;2022-08-03T05:44:27;99348.41;;;13.85;57.86
69184;BME280;56291;53.960;27.550;2022-08-03T05:46:59;99353.91;;;13.92;58.76
69184;BME280;56291;53.960;27.550;2022-08-03T05:49:27;99358.44;;;14.00;59.37
69184;BME280;56291;53.960;27.550;2022-08-03T05:55:11;99356.38;;;14.20;61.02
69184;BME280;56291;53.960;27.550;2022-08-03T05:57:52;99353.06;;;14.26;58.91
69184;BME280;56291;53.960;27.550;2022-08-03T06:00:31;99359.91;;;14.37;59.96
69184;BME280;56291;53.960;27.550;2022-08-03T06:03:00;99354.16;;;14.50;60.02
69184;BME280;56291;53.960;27.550;2022-08-03T06:06:08;99360.63;;;14.55;61.41
69184;BME280;56291;53.960;27.550;2022-08-03T06:08:45;99359.72;;;14.65;59.09
69184;BME280;56291;53.960;27.550;2022-08-03T06:11:13;99365.69;;;14.75;59.11
69184;BME280;56291;53.960;27.550;2022-08-03T06:13:50;99348.16;;;14.90;59.53
69184;BME280;56291;53.960;27.550;2022-08-03T06:16:35;99362.28;;;15.07;59.90
69184;BME280;56291;53.960;27.550;2022-08-03T06:19:35;99365.94;;;15.23;59.22
69184;BME280;56291;53.960;27.550;2022-08-03T06:22:14;99366.09;;;15.38;61.20
69184;BME280;56291;53.960;27.550;2022-08-03T06:24:45;99363.47;;;15.54;58.68
69184;BME280;56291;53.960;27.550;2022-08-03T06:27:14;99355.63;;;15.69;58.79
69184;BME280;56291;53.960;27.550;2022-08-03T06:29:48;99372.72;;;15.91;59.28
69184;BME280;56291;53.960;27.550;2022-08-03T06:32:14;99363.72;;;16.09;59.75
69184;BME280;56291;53.960;27.550;2022-08-03T06:34:41;99367.31;;;16.24;60.13
69184;BME280;56291;53.960;27.550;2022-08-03T06:40:11;99369.50;;;16.52;60.93
69184;BME280;56291;53.960;27.550;2022-08-03T06:42:45;99371.81;;;16.64;61.52
69184;BME280;56291;53.960;27.550;2022-08-03T06:45:12;99372.53;;;16.81;61.57
69184;BME280;56291;53.960;27.550;2022-08-03T06:50:24;99364.56;;;17.12;59.34
69184;BME280;56291;53.960;27.550;2022-08-03T06:53:05;99368.41;;;17.33;59.81
69184;BME280;56291;53.960;27.550;2022-08-03T06:55:38;99354.94;;;17.49;59.43
69184;BME280;56291;53.960;27.550;2022-08-03T06:58:18;99367.16;;;17.58;60.36
69184;BME280;56291;53.960;27.550;2022-08-03T07:01:07;99360.34;;;17.79;60.01
69184;BME280;56291;53.960;27.550;2022-08-03T07:04:00;99367.03;;;17.90;59.45
69184;BME280;56291;53.960;27.550;2022-08-03T07:06:42;99369.28;;;18.16;60.28
69184;BME280;56291;53.960;27.550;2022-08-03T07:09:12;99368.81;;;18.42;59.07
69184;BME280;56291;53.960;27.550;2022-08-03T07:12:12;99363.63;;;18.56;58.94
69184;BME280;56291;53.960;27.550;2022-08-03T07:15:01;99361.56;;;18.88;58.97
69184;BME280;56291;53.960;27.550;2022-08-03T07:17:49;99365.09;;;18.88;58.30
69184;BME280;56291;53.960;27.550;2022-08-03T07:20:27;99359.75;;;19.10;58.96
69184;BME280;56291;53.960;27.550;2022-08-03T07:23:04;99360.19;;;19.35;58.25
69184;BME280;56291;53.960;27.550;2022-08-03T07:25:46;99360.78;;;19.59;57.68
69184;BME280;56291;53.960;27.550;2022-08-03T07:28:49;99361.22;;;19.84;56.84
69184;BME280;56291;53.960;27.550;2022-08-03T07:31:20;99364.19;;;20.02;56.51
69184;BME280;56291;53.960;27.550;2022-08-03T07:36:58;99360.84;;;20.29;55.45
69184;BME280;56291;53.960;27.550;2022-08-03T07:39:36;99366.28;;;20.49;54.64
69184;BME280;56291;53.960;27.550;2022-08-03T07:42:28;99369.47;;;20.73;54.27
69184;BME280;56291;53.960;27.550;2022-08-03T07:45:06;99359.03;;;20.84;53.59
69184;BME280;56291;53.960;27.550;2022-08-03T07:47:54;99358.63;;;21.01;52.64
69184;BME280;56291;53.960;27.550;2022-08-03T07:50:36;99362.38;;;21.20;52.87
69184;BME280;56291;53.960;27.550;2022-08-03T07:53:24;99369.41;;;21.41;53.07
69184;BME280;56291;53.960;27.550;2022-08-03T07:55:50;99365.31;;;21.65;52.34
69184;BME280;56291;53.960;27.550;2022-08-03T07:58:45;99351.28;;;21.90;51.67
69184;BME280;56291;53.960;27.550;2022-08-03T08:01:25;99356.78;;;22.08;51.19
69184;BME280;56291;53.960;27.550;2022-08-03T08:04:18;99355.69;;;22.30;50.42
69184;BME280;56291;53.960;27.550;2022-08-03T08:07:23;99358.09;;;22.51;49.39
69184;BME280;56291;53.960;27.550;2022-08-03T18:17:34;99376.16;;;27.42;37.63
69184;BME280;56291;53.960;27.550;2022-08-03T18:23:15;99379.41;;;27.10;38.04
69184;BME280;56291;53.960;27.550;2022-08-03T18:26:03;99387.38;;;26.88;38.28
69184;BME280;56291;53.960;27.550;2022-08-03T18:28:38;99383.09;;;26.75;38.50
69184;BME280;56291;53.960;27.550;2022-08-03T18:31:11;99384.13;;;26.62;38.73
69184;BME280;56291;53.960;27.550;2022-08-03T18:33:41;99388.53;;;26.52;39.04
69184;BME280;56291;53.960;27.550;2022-08-03T18:36:13;99397.13;;;26.37;38.88
69184;BME280;56291;53.960;27.550;2022-08-03T18:38:42;99396.47;;;26.18;39.37
69184;BME280;56291;53.960;27.550;2022-08-03T18:41:58;99395.97;;;25.97;39.27
69184;BME280;56291;53.960;27.550;2022-08-03T18:44:40;99404.41;;;25.89;39.21
69184;BME280;56291;53.960;27.550;2022-08-03T18:51:16;99404.03;;;25.50;40.35
69184;BME280;56291;53.960;27.550;2022-08-03T18:53:52;99400.47;;;25.37;40.12
69184;BME280;56291;53.960;27.550;2022-08-03T19:02:59;99401.63;;;24.99;41.01
69184;BME280;56291;53.960;27.550;2022-08-03T19:05:31;99404.94;;;24.83;41.31
69184;BME280;56291;53.960;27.550;2022-08-03T19:08:03;99405.13;;;24.69;41.31
69184;BME280;56291;53.960;27.550;2022-08-03T19:10:33;99406.69;;;24.58;41.54
69184;BME280;56291;53.960;27.550;2022-08-03T19:13:18;99407.72;;;24.39;41.74
69184;BME280;56291;53.960;27.550;2022-08-03T19:15:49;99413.34;;;24.37;42.03
69184;BME280;56291;53.960;27.550;2022-08-03T19:18:30;99413.47;;;24.24;42.46
69184;BME280;56291;53.960;27.550;2022-08-03T19:21:01;99411.38;;;24.07;41.71
69184;BME280;56291;53.960;27.550;2022-08-03T19:23:33;99410.63;;;24.00;42.82
69184;BME280;56291;53.960;27.550;2022-08-03T19:26:14;99408.88;;;23.87;42.82
69184;BME280;56291;53.960;27.550;2022-08-03T19:29:02;99409.63;;;23.69;43.27
69184;BME280;56291;53.960;27.550;2022-08-03T19:32:00;99409.16;;;23.54;43.45
69184;BME280;56291;53.960;27.550;2022-08-03T19:34:28;99397.59;;;23.47;43.14
69184;BME280;56291;53.960;27.550;2022-08-03T19:40:22;99412.88;;;23.21;42.75
69184;BME280;56291;53.960;27.550;2022-08-03T19:43:06;99412.31;;;23.05;43.46
69184;BME280;56291;53.960;27.550;2022-08-03T19:45:44;99416.28;;;22.96;44.58
69184;BME280;56291;53.960;27.550;2022-08-03T19:51:11;99411.44;;;22.73;44.09
69184;BME280;56291;53.960;27.550;2022-08-03T19:53:56;99411.91;;;22.56;44.25
69184;BME280;56291;53.960;27.550;2022-08-03T19:56:59;99408.25;;;22.44;44.61
69184;BME280;56291;53.960;27.550;2022-08-03T20:00:02;99412.59;;;22.32;45.04
69184;BME280;56291;53.960;27.550;2022-08-03T20:02:42;99398.63;;;22.16;45.09
69184;BME280;56291;53.960;27.550;2022-08-03T20:08:44;99399.06;;;22.00;44.86
69184;BME280;56291;53.960;27.550;2022-08-03T20:11:33;99409.19;;;21.91;45.60
69184;BME280;56291;53.960;27.550;2022-08-03T20:14:40;99405.44;;;21.85;45.54
69184;BME280;56291;53.960;27.550;2022-08-03T20:17:27;99414.34;;;21.66;45.75
69184;BME280;56291;53.960;27.550;2022-08-03T20:20:26;99417.22;;;21.58;46.57
69184;BME280;56291;53.960;27.550;2022-08-03T20:22:58;99422.72;;;21.49;46.28
69184;BME280;56291;53.960;27.550;2022-08-03T20:26:07;99416.75;;;21.47;46.50
69184;BME280;56291;53.960;27.550;2022-08-03T20:29:18;99422.50;;;21.31;47.12
69184;BME280;56291;53.960;27.550;2022-08-03T20:31:47;99424.72;;;21.20;47.12
69184;BME280;56291;53.960;27.550;2022-08-03T20:34:32;99422.69;;;21.16;47.13
69184;BME280;56291;53.960;27.550;2022-08-03T20:37:09;99427.38;;;21.00;48.73
69184;BME280;56291;53.960;27.550;2022-08-03T20:39:48;99426.94;;;20.90;47.83
69184;BME280;56291;53.960;27.550;2022-08-03T20:42:25;99418.69;;;20.85;48.27
69184;BME280;56291;53.960;27.550;2022-08-03T20:44:54;99421.94;;;20.74;48.40
69184;BME280;56291;53.960;27.550;2022-08-03T20:50:09;99418.53;;;20.58;48.48
69184;BME280;56291;53.960;27.550;2022-08-03T20:52:47;99419.53;;;20.50;49.14
69184;BME280;56291;53.960;27.550;2022-08-03T20:55:21;99419.31;;;20.45;49.20
69184;BME280;56291;53.960;27.550;2022-08-03T20:58:16;99416.75;;;20.30;49.90
69184;BME280;56291;53.960;27.550;2022-08-03T21:00:46;99421.84;;;20.25;50.12
69184;BME280;56291;53.960;27.550;2022-08-03T21:03:17;99420.41;;;20.23;50.42
69184;BME280;56291;53.960;27.550;2022-08-03T21:06:05;99419.34;;;20.17;50.81
69184;BME280;56291;53.960;27.550;2022-08-03T21:08:48;99413.06;;;20.03;50.84
69184;BME280;56291;53.960;27.550;2022-08-03T21:11:36;99417.19;;;19.99;51.60
69184;BME280;56291;53.960;27.550;2022-08-03T21:14:17;99420.00;;;19.91;50.82
69184;BME280;56291;53.960;27.550;2022-08-03T21:19:53;99425.38;;;19.76;51.76
69184;BME280;56291;53.960;27.550;2022-08-03T21:22:48;99424.13;;;19.72;52.19
69184;BME280;56291;53.960;27.550;2022-08-03T21:25:33;99418.72;;;19.65;52.01
69184;BME280;56291;53.960;27.550;2022-08-03T21:28:00;99412.50;;;19.58;52.67
69184;BME280;56291;53.960;27.550;2022-08-03T21:30:28;99412.63;;;19.49;53.32
69184;BME280;56291;53.960;27.550;2022-08-03T21:33:01;99414.69;;;19.47;54.13
69184;BME280;56291;53.960;27.550;2022-08-03T21:35:29;99418.50;;;19.38;54.09
69184;BME280;56291;53.960;27.550;2022-08-03T21:37:58;99418.59;;;19.30;54.46
69184;BME280;56291;53.960;27.550;2022-08-03T21:40:43;99417.34;;;19.26;54.89
69184;BME280;56291;53.960;27.550;2022-08-03T21:43:11;99421.78;;;19.18;55.05
69184;BME280;56291;53.960;27.550;2022-08-03T21:45:53;99413.28;;;19.08;55.91
69184;BME280;56291;53.960;27.550;2022-08-03T21:48:24;99421.47;;;19.07;55.67
69184;BME280;56291;53.960;27.550;2022-08-03T21:50:57;99418.91;;;18.98;56.08
69184;BME280;56291;53.960;27.550;2022-08-03T21:53:30;99421.97;;;18.95;55.45
69184;BME280;56291;53.960;27.550;2022-08-03T21:56:11;99420.22;;;18.88;56.39
69184;BME280;56291;53.960;27.550;2022-08-03T21:58:43;99420.28;;;18.79;56.62
